Time;durP1;ratioP1;P1;durP2;ratioP2;P2;SDS_P1;SDS_P2;PMS_P1;PMS_P2;Temp;Humidity;BMP_temperature;BMP_pressure;BME280_temperature;BME280_humidity;BME280_pressure;Samples;Min_cycle;Max_cycle;Signal;HPM_P1;HPM_P2
2022/03/02 00:00:39;;;;;;;22.87;15.53;;;;;;;37.88;46.28;100837.44;5011205;28;20424;-68
2022/03/02 00:03:05;;;;;;;36.73;14.50;;;;;;;37.68;46.41;100839.78;5010943;28;20522;-69
2022/03/02 00:05:31;;;;;;;38.67;16.70;;;;;;;38.00;46.03;100833.38;5012411;28;20397;-68
2022/03/02 00:07:57;;;;;;;28.50;14.30;;;;;;;37.96;45.34;100835.09;5012328;28;20424;-67
2022/03/02 00:10:23;;;;;;;36.77;16.27;;;;;;;37.83;46.06;100845.69;5012461;28;20431;-68
2022/03/02 00:12:50;;;;;;;31.43;15.77;;;;;;;38.04;45.65;100845.19;5010619;28;20467;-68
2022/03/02 00:15:16;;;;;;;30.07;13.83;;;;;;;37.56;45.61;100835.69;5012229;28;20468;-68
2022/03/02 00:17:42;;;;;;;42.80;17.10;;;;;;;37.63;45.61;100844.22;5010766;28;20420;-68
2022/03/02 00:20:09;;;;;;;35.53;16.10;;;;;;;37.61;45.54;100854.53;4994726;28;20416;-68
2022/03/02 00:22:36;;;;;;;39.07;14.07;;;;;;;37.76;44.91;100855.31;5010703;28;20448;-67
2022/03/02 00:25:02;;;;;;;28.03;14.80;;;;;;;37.90;44.21;100866.91;5010821;28;20812;-68
2022/03/02 00:27:29;;;;;;;27.10;14.10;;;;;;;37.86;44.42;100845.06;5009918;28;20453;-67
2022/03/02 00:29:55;;;;;;;32.47;15.83;;;;;;;37.82;44.12;100846.00;5010797;28;20450;-68
2022/03/02 00:32:21;;;;;;;40.00;15.47;;;;;;;37.54;44.38;100840.59;5010585;28;20417;-68
2022/03/02 00:34:47;;;;;;;42.40;14.80;;;;;;;37.88;44.15;100832.03;5010972;28;20424;-70
2022/03/02 00:37:14;;;;;;;36.07;14.73;;;;;;;37.93;44.71;100833.78;5010469;28;20466;-67
2022/03/02 00:39:42;;;;;;;22.30;13.47;;;;;;;38.23;43.29;100820.63;5010774;28;20447;-68
2022/03/02 00:42:09;;;;;;;24.23;13.23;;;;;;;38.08;43.65;100819.91;5010410;28;20793;-68
2022/03/02 00:44:35;;;;;;;23.00;13.03;;;;;;;37.84;44.50;100814.00;5010785;28;20424;-68
2022/03/02 00:47:03;;;;;;;22.17;12.47;;;;;;;38.15;43.90;100811.34;5010365;28;20427;-68
2022/03/02 00:49:31;;;;;;;28.00;13.87;;;;;;;37.89;44.13;100805.75;4994301;28;20444;-68
2022/03/02 00:51:58;;;;;;;35.27;15.30;;;;;;;37.88;44.37;100802.25;5010659;28;20800;-69
2022/03/02 00:54:24;;;;;;;26.27;13.27;;;;;;;37.69;44.50;100801.59;4993915;28;20408;-70
2022/03/02 00:56:51;;;;;;;35.30;13.90;;;;;;;37.86;43.80;100795.53;5023562;28;20964;-68
2022/03/02 00:59:17;;;;;;;43.27;17.77;;;;;;;37.73;44.35;100797.16;5019359;28;20431;-68
2022/03/02 01:01:43;;;;;;;28.30;16.00;;;;;;;37.73;44.94;100801.75;5010493;28;20527;-68
2022/03/02 01:04:09;;;;;;;40.37;14.53;;;;;;;37.60;44.89;100789.88;5010320;28;20460;-68
2022/03/02 01:06:36;;;;;;;34.97;12.90;;;;;;;37.71;45.59;100793.94;5010342;28;20794;-67
2022/03/02 01:09:03;;;;;;;34.63;18.07;;;;;;;37.83;45.18;100785.31;5010251;28;20607;-68
2022/03/02 01:11:29;;;;;;;27.87;14.80;;;;;;;37.80;44.41;100797.53;5010350;28;20444;-68
2022/03/02 01:13:56;;;;;;;42.30;16.00;;;;;;;37.91;44.72;100808.94;5009991;28;20421;-69
2022/03/02 01:16:22;;;;;;;36.63;14.17;;;;;;;37.75;44.64;100794.13;4994219;28;20459;-68
2022/03/02 01:18:48;;;;;;;28.73;15.50;;;;;;;37.91;44.95;100796.19;5009941;28;20441;-68
2022/03/02 01:21:14;;;;;;;45.90;18.70;;;;;;;37.78;45.68;100799.75;5010343;28;20428;-68
2022/03/02 01:23:40;;;;;;;43.30;16.40;;;;;;;37.81;45.01;100793.75;5009979;28;21003;-70
2022/03/02 01:26:07;;;;;;;31.90;16.77;;;;;;;37.83;44.84;100801.56;5011514;28;20409;-68
2022/03/02 01:28:33;;;;;;;26.40;14.40;;;;;;;37.79;45.05;100790.50;5010034;28;20452;-68
2022/03/02 01:31:00;;;;;;;37.73;16.90;;;;;;;37.19;45.83;100798.03;5010047;28;20949;-68
2022/03/02 01:33:26;;;;;;;29.00;15.07;;;;;;;37.64;45.43;100788.97;4993694;28;20444;-68
2022/03/02 01:35:52;;;;;;;32.50;14.10;;;;;;;37.48;44.75;100787.69;5010235;28;20420;-68
2022/03/02 01:38:18;;;;;;;50.10;14.90;;;;;;;37.72;44.37;100783.94;5012646;28;20412;-70
2022/03/02 01:40:44;;;;;;;34.60;14.63;;;;;;;37.42;45.05;100788.13;5013813;28;20416;-69
2022/03/02 01:43:13;;;;;;;40.37;15.00;;;;;;;37.42;44.83;100790.81;5014760;28;20476;-68
2022/03/02 01:45:39;;;;;;;33.00;14.13;;;;;;;37.31;45.37;100769.38;5013707;28;20867;-68
2022/03/02 01:48:05;;;;;;;29.43;14.20;;;;;;;37.64;45.06;100774.63;5013604;28;20420;-67
2022/03/02 01:50:32;;;;;;;24.93;14.43;;;;;;;37.28;45.33;100786.22;5013691;28;20432;-68
2022/03/02 01:52:59;;;;;;;34.37;14.50;;;;;;;37.43;45.32;100776.19;5013596;28;20431;-68
2022/03/02 01:55:26;;;;;;;30.63;16.57;;;;;;;37.56;45.37;100764.50;5013363;28;20420;-70
2022/03/02 01:57:52;;;;;;;32.30;13.57;;;;;;;37.56;45.99;100773.44;5014719;28;20404;-68
2022/03/02 02:00:21;;;;;;;32.67;14.17;;;;;;;37.71;45.34;100761.47;4997350;28;20417;-68
2022/03/02 02:02:48;;;;;;;37.70;17.60;;;;;;;37.56;45.26;100753.69;5013203;28;20535;-67
2022/03/02 02:05:15;;;;;;;24.37;14.80;;;;;;;37.58;45.66;100749.59;5013220;28;20416;-67
2022/03/02 02:07:41;;;;;;;32.80;16.03;;;;;;;37.76;45.18;100760.56;5013177;28;20964;-68
2022/03/02 02:10:08;;;;;;;52.13;16.40;;;;;;;37.60;44.53;100754.69;5013434;28;20416;-68
2022/03/02 02:12:35;;;;;;;30.40;15.40;;;;;;;37.70;44.81;100759.88;5013039;28;20482;-68
2022/03/02 02:15:03;;;;;;;28.77;14.60;;;;;;;37.79;44.17;100740.97;5012805;28;20468;-67
2022/03/02 02:17:29;;;;;;;39.67;17.00;;;;;;;37.32;45.26;100745.81;5013092;28;20421;-69
2022/03/02 02:19:55;;;;;;;41.70;16.67;;;;;;;37.04;44.79;100742.38;5013085;28;20424;-68
2022/03/02 02:22:21;;;;;;;35.87;15.70;;;;;;;37.20;44.56;100746.38;5013034;28;20419;-70
2022/03/02 02:24:48;;;;;;;32.20;14.30;;;;;;;36.94;45.43;100756.91;5012622;28;20424;-68
2022/03/02 02:27:16;;;;;;;23.13;13.50;;;;;;;37.45;45.01;100750.44;5012381;28;20419;-68
2022/03/02 02:29:44;;;;;;;29.70;17.17;;;;;;;37.33;45.31;100742.81;5012956;28;20475;-68
2022/03/02 02:32:10;;;;;;;32.10;15.43;;;;;;;37.38;44.80;100750.03;5012767;28;20447;-68
2022/03/02 02:34:36;;;;;;;33.57;16.40;;;;;;;37.38;44.71;100764.38;5012670;28;20424;-69
2022/03/02 02:37:05;;;;;;;41.90;14.50;;;;;;;37.84;44.62;100754.44;5012533;28;20484;-68
2022/03/02 02:39:32;;;;;;;33.60;15.20;;;;;;;38.05;43.83;100754.72;5014132;28;20912;-67
2022/03/02 02:42:08;;;;;;;30.60;14.83;;;;;;;38.11;43.84;100753.47;5012873;28;20924;-68
2022/03/02 02:44:35;;;;;;;32.47;15.87;;;;;;;37.78;43.58;100761.84;5013857;28;20965;-68
2022/03/02 02:47:02;;;;;;;28.70;14.80;;;;;;;37.81;43.75;100755.03;5013889;28;20483;-68
2022/03/02 02:49:28;;;;;;;30.43;15.80;;;;;;;37.88;43.22;100750.00;5011684;28;20438;-67
2022/03/02 02:51:54;;;;;;;29.87;15.30;;;;;;;37.61;43.42;100756.28;5012584;28;20917;-67
2022/03/02 02:54:21;;;;;;;30.00;14.90;;;;;;;37.64;44.62;100747.56;5012848;28;20515;-68
2022/03/02 02:56:47;;;;;;;40.47;15.10;;;;;;;37.57;44.94;100744.50;5029131;28;20433;-69
2022/03/02 02:59:14;;;;;;;35.33;15.33;;;;;;;37.61;44.90;100745.47;5031765;28;20924;-68
2022/03/02 03:01:40;;;;;;;35.27;15.70;;;;;;;37.80;44.45;100737.16;5031006;28;20412;-69
2022/03/02 03:04:06;;;;;;;33.00;16.30;;;;;;;37.82;44.25;100735.78;5031986;28;20537;-68
2022/03/02 03:06:33;;;;;;;32.20;16.80;;;;;;;37.50;44.54;100736.78;5031601;28;20775;-67
2022/03/02 03:09:00;;;;;;;28.47;14.80;;;;;;;37.71;43.75;100734.41;5031432;28;20749;-69
2022/03/02 03:11:26;;;;;;;30.00;18.90;;;;;;;37.56;43.87;100742.88;5030880;28;20475;-68
2022/03/02 03:13:52;;;;;;;19.17;13.07;;;;;;;37.84;43.68;100736.28;5031454;28;20431;-68
2022/03/02 03:16:18;;;;;;;22.47;13.57;;;;;;;36.96;45.61;100737.69;5031762;28;20439;-69
2022/03/02 03:18:44;;;;;;;20.40;12.77;;;;;;;37.54;44.87;100732.34;5012475;28;20455;-68
2022/03/02 03:21:10;;;;;;;33.80;15.70;;;;;;;37.64;44.80;100736.75;5010785;28;20428;-68
2022/03/02 03:23:36;;;;;;;27.50;14.83;;;;;;;37.56;43.99;100742.88;5013182;28;20448;-67
2022/03/02 03:26:03;;;;;;;33.30;16.87;;;;;;;37.58;43.99;100732.56;4995375;28;20424;-68
2022/03/02 03:28:29;;;;;;;32.20;15.87;;;;;;;37.89;44.03;100744.28;5011640;28;20451;-68
2022/03/02 03:30:55;;;;;;;29.60;15.87;;;;;;;37.39;44.03;100743.53;5011758;28;20512;-68
2022/03/02 03:33:21;;;;;;;31.37;14.53;;;;;;;37.50;44.00;100744.88;5011700;28;20412;-67
2022/03/02 03:35:48;;;;;;;26.43;17.43;;;;;;;37.50;43.72;100752.22;5011812;28;20924;-68
2022/03/02 03:38:14;;;;;;;26.07;15.03;;;;;;;37.56;43.54;100742.88;5012864;28;20400;-68
2022/03/02 03:40:40;;;;;;;24.77;14.87;;;;;;;37.70;43.67;100754.47;5011008;28;20429;-68
2022/03/02 03:43:06;;;;;;;27.40;14.27;;;;;;;37.72;43.30;100736.00;5010481;28;20452;-68
2022/03/02 03:45:32;;;;;;;34.43;14.60;;;;;;;37.56;43.69;100746.38;5011191;28;20416;-68
2022/03/02 03:47:59;;;;;;;45.67;18.30;;;;;;;37.67;43.99;100746.16;5012603;28;20412;-70
2022/03/02 03:50:25;;;;;;;30.70;15.17;;;;;;;37.62;43.72;100747.84;5011393;28;20498;-67
2022/03/02 03:52:51;;;;;;;30.47;17.43;;;;;;;37.38;44.22;100755.44;5012669;28;20479;-70
2022/03/02 03:55:18;;;;;;;26.90;14.10;;;;;;;37.40;44.12;100753.25;5011406;28;20971;-67
2022/03/02 03:57:44;;;;;;;23.10;12.70;;;;;;;37.83;43.05;100760.94;5011048;28;20453;-68
2022/03/02 04:00:14;;;;;;;45.13;16.00;;;;;;;37.79;43.63;100765.34;5011273;28;20919;-68
2022/03/02 04:02:40;;;;;;;22.97;15.27;;;;;;;37.97;43.05;100755.47;5010920;28;20468;-70
2022/03/02 04:05:07;;;;;;;27.67;14.70;;;;;;;37.32;44.58;100775.56;5012584;28;20432;-68
2022/03/02 04:07:33;;;;;;;31.73;15.40;;;;;;;37.57;44.47;100763.44;5010816;28;20510;-67
2022/03/02 04:09:59;;;;;;;24.93;13.20;;;;;;;37.46;44.26;100764.78;5011344;28;20428;-68
2022/03/02 04:12:25;;;;;;;25.00;14.37;;;;;;;37.48;44.81;100760.63;5010998;28;20978;-68
2022/03/02 04:14:51;;;;;;;21.90;13.13;;;;;;;37.19;45.12;100765.59;5010710;28;21074;-69
2022/03/02 04:17:17;;;;;;;29.13;14.10;;;;;;;37.34;44.62;100768.00;5010661;28;20416;-69
2022/03/02 04:19:43;;;;;;;22.10;14.60;;;;;;;37.40;44.38;100766.00;5010977;28;20913;-68
2022/03/02 04:22:09;;;;;;;39.20;16.00;;;;;;;37.53;44.62;100768.66;5011181;28;20427;-68
2022/03/02 04:24:36;;;;;;;28.93;16.67;;;;;;;37.56;45.01;100770.72;5012237;28;20961;-67
2022/03/02 04:27:02;;;;;;;32.70;15.40;;;;;;;37.23;45.42;100775.50;5009542;28;20479;-69
2022/03/02 04:29:28;;;;;;;20.23;13.87;;;;;;;37.32;45.06;100780.97;5010931;28;20415;-68
2022/03/02 04:31:54;;;;;;;31.57;12.57;;;;;;;37.62;44.44;100769.50;5010632;28;20423;-68
2022/03/02 04:34:20;;;;;;;24.07;15.27;;;;;;;37.62;44.40;100774.91;5010270;28;20780;-68
2022/03/02 04:36:47;;;;;;;31.53;14.90;;;;;;;37.67;44.55;100787.53;5010224;28;20478;-70
2022/03/02 04:39:13;;;;;;;32.67;14.37;;;;;;;37.87;43.84;100781.66;5010520;28;20444;-68
2022/03/02 04:41:39;;;;;;;35.43;14.90;;;;;;;37.61;45.07;100784.16;5010713;28;20420;-68
2022/03/02 04:44:05;;;;;;;36.63;14.07;;;;;;;37.21;44.86;100793.94;5009337;28;20483;-69
2022/03/02 04:46:31;;;;;;;40.67;16.00;;;;;;;37.56;44.24;100786.97;5010229;28;20443;-68
2022/03/02 04:48:57;;;;;;;34.00;15.97;;;;;;;37.75;44.89;100792.25;5010032;28;20442;-68
2022/03/02 04:51:23;;;;;;;27.33;15.13;;;;;;;37.71;44.76;100793.16;5010641;28;20835;-68
2022/03/02 04:53:52;;;;;;;29.60;14.50;;;;;;;37.51;44.57;100795.22;5010187;28;20424;-68
2022/03/02 04:56:18;;;;;;;34.77;19.40;;;;;;;37.81;43.95;100798.34;5010636;28;20476;-67
2022/03/02 04:58:44;;;;;;;24.97;13.60;;;;;;;37.47;44.79;100813.16;5010178;28;20897;-67
2022/03/02 05:01:10;;;;;;;28.53;12.70;;;;;;;37.66;44.49;100815.72;5010553;28;20419;-67
2022/03/02 05:03:36;;;;;;;24.83;14.67;;;;;;;37.10;45.38;100823.09;5013033;28;20455;-68
2022/03/02 05:06:02;;;;;;;22.80;12.87;;;;;;;37.41;44.25;100817.09;5010507;28;20427;-67
2022/03/02 05:08:29;;;;;;;25.77;14.87;;;;;;;37.68;43.71;100818.13;5010075;28;20443;-68
2022/03/02 05:10:55;;;;;;;29.47;15.80;;;;;;;37.55;44.30;100822.47;4993675;28;20462;-67
2022/03/02 05:13:21;;;;;;;25.13;15.43;;;;;;;37.44;44.64;100813.75;5012214;28;20447;-68
2022/03/02 05:15:47;;;;;;;23.33;15.37;;;;;;;37.57;43.78;100825.69;5012708;28;20472;-68
2022/03/02 05:18:13;;;;;;;35.57;15.50;;;;;;;37.56;44.47;100819.44;5015326;28;20766;-67
2022/03/02 05:20:39;;;;;;;45.83;16.00;;;;;;;37.72;44.42;100827.22;5014027;28;20432;-68
2022/03/02 05:23:05;;;;;;;33.63;15.17;;;;;;;37.62;44.51;100829.06;5014066;28;20809;-68
2022/03/02 05:25:31;;;;;;;33.53;14.30;;;;;;;37.75;44.48;100827.44;5012619;28;20919;-68
2022/03/02 05:27:57;;;;;;;35.63;16.77;;;;;;;37.31;45.47;100833.50;5013856;28;20412;-68
2022/03/02 05:30:24;;;;;;;32.60;14.27;;;;;;;37.82;44.27;100838.66;5015439;28;20408;-68
2022/03/02 05:32:50;;;;;;;29.90;15.10;;;;;;;37.92;43.76;100853.88;5015223;28;20409;-68
2022/03/02 05:35:16;;;;;;;28.83;14.23;;;;;;;37.97;43.20;100856.47;5014008;28;20424;-68
2022/03/02 05:37:42;;;;;;;31.90;15.07;;;;;;;37.62;43.54;100845.28;5014928;28;20797;-68
2022/03/02 05:40:11;;;;;;;49.60;16.17;;;;;;;38.09;42.52;100847.78;5014096;28;20410;-70
2022/03/02 05:42:38;;;;;;;29.43;16.93;;;;;;;38.29;42.28;100849.22;5013813;28;20452;-68
2022/03/02 05:45:04;;;;;;;30.47;15.90;;;;;;;38.10;42.92;100850.19;5015162;28;20399;-68
2022/03/02 05:47:30;;;;;;;28.30;12.63;;;;;;;38.03;42.82;100860.66;5013227;28;20431;-68
2022/03/02 05:49:56;;;;;;;32.20;15.20;;;;;;;38.21;43.42;100866.19;5014006;28;20423;-68
2022/03/02 05:52:24;;;;;;;28.83;15.73;;;;;;;38.20;43.00;100870.81;5013993;28;20416;-68
2022/03/02 05:54:50;;;;;;;28.87;15.23;;;;;;;38.26;42.22;100866.91;5013601;28;20420;-68
2022/03/02 05:57:16;;;;;;;28.77;12.27;;;;;;;38.17;43.01;100866.00;5013447;28;20416;-70
2022/03/02 05:59:42;;;;;;;35.27;14.47;;;;;;;38.22;42.53;100870.50;5013300;28;20416;-68
2022/03/02 06:02:08;;;;;;;32.20;14.80;;;;;;;37.99;42.66;100873.19;5013385;28;20499;-68
2022/03/02 06:04:34;;;;;;;26.80;13.97;;;;;;;37.84;43.00;100881.69;5013550;28;20462;-68
2022/03/02 06:07:00;;;;;;;25.70;15.00;;;;;;;38.07;42.71;100893.34;5014276;28;20523;-68
2022/03/02 06:09:26;;;;;;;28.53;16.33;;;;;;;38.11;42.98;100897.03;5013192;28;20489;-68
2022/03/02 06:11:53;;;;;;;37.57;17.97;;;;;;;38.23;42.70;100900.00;5014466;28;20879;-67
2022/03/02 06:14:23;;;;;;;37.00;17.20;;;;;;;38.08;43.71;100903.06;5013032;28;20547;-67
2022/03/02 06:16:50;;;;;;;31.63;16.67;;;;;;;38.03;43.60;100898.56;5013609;28;20514;-67
2022/03/02 06:19:17;;;;;;;37.03;16.87;;;;;;;37.73;43.88;100904.63;4985175;28;20429;-68
2022/03/02 06:21:46;;;;;;;38.73;18.33;;;;;;;37.73;43.79;100902.72;5010131;28;20424;-69
2022/03/02 06:24:14;;;;;;;42.10;18.17;;;;;;;38.00;44.09;100899.19;4983798;28;20465;-63
2022/03/02 06:26:41;;;;;;;41.70;16.67;;;;;;;38.17;43.48;100903.94;5003330;28;20867;-68
2022/03/02 06:29:07;;;;;;;24.20;16.90;;;;;;;37.97;43.32;100899.78;4990530;28;20469;-68
2022/03/02 06:31:34;;;;;;;30.90;17.33;;;;;;;38.17;43.28;100896.59;5003228;28;20420;-70
2022/03/02 06:34:00;;;;;;;33.67;17.80;;;;;;;38.00;43.48;100910.03;4995890;28;20418;-68
2022/03/02 06:36:26;;;;;;;39.43;15.03;;;;;;;37.78;43.92;100904.53;4993128;28;20417;-68
2022/03/02 06:38:52;;;;;;;31.70;14.57;;;;;;;37.90;44.19;100900.22;4994061;28;20817;-68
2022/03/02 06:41:45;;;;;;;32.60;16.07;;;;;;;37.86;44.22;100907.34;4995556;28;20566;-68
2022/03/02 06:44:26;;;;;;;35.40;16.20;;;;;;;37.98;43.39;100908.72;5010596;28;20462;-68
2022/03/02 06:47:10;;;;;;;37.27;17.23;;;;;;;37.98;43.90;100914.94;5012456;28;20412;-68
2022/03/02 06:49:38;;;;;;;39.07;19.17;;;;;;;37.91;43.58;100923.47;5012017;28;20867;-68
2022/03/02 06:52:06;;;;;;;32.63;16.57;;;;;;;37.98;43.06;100924.97;5013117;28;20416;-68
2022/03/02 06:54:33;;;;;;;29.03;14.97;;;;;;;37.96;43.92;100930.69;5014107;28;20463;-69
2022/03/02 06:57:02;;;;;;;33.43;19.70;;;;;;;38.22;43.21;100939.03;5027751;28;20724;-68
2022/03/02 06:59:43;;;;;;;28.00;16.30;;;;;;;38.17;43.11;100942.66;5011763;28;20478;-68
2022/03/02 07:02:15;;;;;;;36.60;18.23;;;;;;;38.33;42.86;100943.16;5009804;28;20474;-68
2022/03/02 07:04:43;;;;;;;38.00;16.50;;;;;;;38.07;43.37;100942.91;5011362;28;20460;-68
2022/03/02 07:07:11;;;;;;;30.00;15.70;;;;;;;38.23;42.97;100954.19;5012414;28;20400;-71
2022/03/02 07:09:37;;;;;;;32.60;17.80;;;;;;;38.13;43.01;100957.94;5011496;28;20512;-68
2022/03/02 07:12:08;;;;;;;28.43;17.10;;;;;;;38.15;44.05;100961.13;5013376;28;20436;-68
2022/03/02 07:14:38;;;;;;;42.20;21.70;;;;;;;38.17;43.41;100969.75;5011858;28;20476;-68
2022/03/02 07:17:05;;;;;;;33.67;18.70;;;;;;;38.25;42.94;100964.72;5012945;28;20487;-68
2022/03/02 07:19:32;;;;;;;29.40;14.13;;;;;;;38.30;42.51;100964.63;4995681;28;20416;-69
2022/03/02 07:22:05;;;;;;;32.07;17.27;;;;;;;38.22;42.69;100968.03;5011617;28;20470;-68
2022/03/02 07:24:46;;;;;;;25.97;17.50;;;;;;;38.26;42.27;100969.03;5011994;28;20480;-68
2022/03/02 07:27:15;;;;;;;35.13;16.80;;;;;;;38.16;43.14;100961.94;5011169;28;20428;-68
2022/03/02 07:29:42;;;;;;;34.80;15.57;;;;;;;38.44;42.19;100968.91;5011712;28;20426;-69
2022/03/02 07:32:10;;;;;;;34.67;15.53;;;;;;;38.28;42.79;100972.25;5011544;28;20805;-68
2022/03/02 07:34:44;;;;;;;36.40;15.67;;;;;;;38.27;42.48;100979.59;4995732;28;20423;-68
2022/03/02 07:37:10;;;;;;;20.10;13.80;;;;;;;38.18;42.47;100981.38;4995232;28;20443;-68
2022/03/02 07:39:37;;;;;;;32.23;17.00;;;;;;;38.34;42.02;100984.59;5011528;28;20448;-68
2022/03/02 07:42:04;;;;;;;37.67;18.13;;;;;;;38.11;42.92;100994.53;4992159;28;20506;-68
2022/03/02 07:44:30;;;;;;;34.33;17.60;;;;;;;37.89;43.26;100987.16;5011987;28;20467;-68
2022/03/02 07:46:56;;;;;;;22.90;13.37;;;;;;;37.96;43.10;101001.09;5010584;28;20428;-69
2022/03/02 07:49:23;;;;;;;30.87;16.30;;;;;;;38.10;43.35;101004.56;5009078;28;20519;-69
2022/03/02 07:51:54;;;;;;;34.80;17.23;;;;;;;37.98;43.33;101009.72;5003621;28;20424;-69
2022/03/02 07:54:21;;;;;;;33.13;16.13;;;;;;;38.29;42.51;101004.47;5012341;28;20881;-68
2022/03/02 07:56:50;;;;;;;29.47;14.37;;;;;;;38.34;42.81;101014.41;5010729;28;20940;-69
2022/03/02 07:59:17;;;;;;;44.03;17.17;;;;;;;38.34;42.82;101027.94;5009907;28;20429;-69
2022/03/02 08:01:45;;;;;;;30.67;17.60;;;;;;;38.38;42.99;101029.75;5011546;28;20475;-69
2022/03/02 08:04:11;;;;;;;38.63;15.33;;;;;;;38.40;42.74;101021.31;5002731;28;20676;-69
2022/03/02 08:06:39;;;;;;;30.10;17.07;;;;;;;38.17;43.67;101023.94;4993829;28;20829;-70
2022/03/02 08:09:08;;;;;;;23.03;14.27;;;;;;;38.16;43.70;101030.44;5002502;28;20424;-69
2022/03/02 08:11:37;;;;;;;27.53;15.33;;;;;;;38.32;42.96;101035.59;5020598;28;20534;-68
2022/03/02 08:14:05;;;;;;;29.77;15.67;;;;;;;38.45;43.06;101029.31;5010719;28;20408;-68
2022/03/02 08:16:32;;;;;;;31.47;15.37;;;;;;;38.57;42.88;101032.28;5007828;28;21027;-68
2022/03/02 08:19:01;;;;;;;42.23;18.87;;;;;;;38.35;42.97;101053.94;5011812;28;20466;-68
2022/03/02 08:21:30;;;;;;;20.70;13.00;;;;;;;38.46;43.41;101033.63;5011764;28;20440;-68
2022/03/02 08:23:58;;;;;;;32.60;13.87;;;;;;;38.28;43.49;101045.41;4999778;28;20459;-68
2022/03/02 08:26:26;;;;;;;30.13;13.50;;;;;;;38.21;43.19;101045.81;5003612;28;20440;-68
2022/03/02 08:28:58;;;;;;;25.30;14.77;;;;;;;38.28;42.95;101056.25;5010326;28;20420;-68
2022/03/02 08:31:24;;;;;;;36.73;19.33;;;;;;;38.25;43.20;101052.22;4994129;28;20432;-68
2022/03/02 08:33:51;;;;;;;41.40;17.80;;;;;;;38.01;43.55;101054.38;4990905;28;20457;-68
2022/03/02 08:36:21;;;;;;;31.03;14.40;;;;;;;38.52;42.39;101062.22;4974682;28;20521;-68
2022/03/02 08:38:52;;;;;;;26.70;17.10;;;;;;;38.48;42.33;101061.22;5010232;28;20809;-68
2022/03/02 08:41:19;;;;;;;39.90;14.67;;;;;;;38.25;42.74;101052.22;4991495;28;20449;-68
2022/03/02 08:43:47;;;;;;;45.80;16.60;;;;;;;38.42;42.25;101062.44;5010388;28;20463;-69
2022/03/02 08:46:14;;;;;;;28.67;15.33;;;;;;;38.46;42.72;101058.03;5021624;28;20424;-69
2022/03/02 08:48:41;;;;;;;28.87;15.90;;;;;;;38.58;42.64;101052.88;4992908;28;20503;-67
2022/03/02 08:51:08;;;;;;;33.20;15.00;;;;;;;38.80;41.97;101056.75;5007189;28;20455;-69
2022/03/02 08:53:34;;;;;;;31.17;15.57;;;;;;;38.82;42.51;101052.63;5010255;28;20452;-68
2022/03/02 08:56:03;;;;;;;41.70;18.57;;;;;;;38.77;42.42;101057.34;4990745;28;20479;-68
2022/03/02 08:58:30;;;;;;;26.77;16.97;;;;;;;38.34;43.23;101063.97;5013584;28;20809;-68
2022/03/02 09:00:59;;;;;;;33.50;14.30;;;;;;;38.57;42.77;101070.25;4990476;28;20425;-70
2022/03/02 09:03:26;;;;;;;35.87;16.83;;;;;;;38.46;42.64;101066.16;4992541;28;20456;-68
2022/03/02 09:05:54;;;;;;;34.40;15.30;;;;;;;38.76;42.41;101059.28;5010005;28;20820;-68
2022/03/02 09:08:20;;;;;;;33.90;15.00;;;;;;;38.88;41.81;101064.16;5020220;28;20416;-68
2022/03/02 09:10:46;;;;;;;50.30;16.43;;;;;;;38.77;42.10;101060.06;5009657;28;21256;-68
2022/03/02 09:13:13;;;;;;;31.17;14.60;;;;;;;38.65;42.31;101060.56;5011432;28;20400;-68
2022/03/02 09:15:40;;;;;;;36.80;15.93;;;;;;;38.80;41.91;101076.53;5009465;28;20466;-68
2022/03/02 09:18:07;;;;;;;34.87;14.10;;;;;;;38.78;41.92;101062.47;5009230;28;21011;-67
2022/03/02 09:20:34;;;;;;;34.57;15.90;;;;;;;39.01;41.86;101074.13;4992727;28;20879;-67
2022/03/02 09:23:04;;;;;;;29.37;14.40;;;;;;;38.64;41.73;101081.47;4993035;28;20875;-69
2022/03/02 09:25:32;;;;;;;25.27;14.13;;;;;;;38.79;42.04;101079.53;5010196;28;20412;-70
2022/03/02 09:27:58;;;;;;;20.03;14.30;;;;;;;38.93;41.80;101085.72;5006600;28;20430;-69
2022/03/02 09:30:25;;;;;;;36.70;15.83;;;;;;;38.95;42.41;101088.91;5009443;28;20424;-69
2022/03/02 09:32:53;;;;;;;25.07;14.60;;;;;;;38.96;42.38;101090.53;5009766;28;20447;-69
2022/03/02 09:35:21;;;;;;;35.07;16.07;;;;;;;38.74;41.37;101094.03;4975363;28;20483;-71
2022/03/02 09:37:53;;;;;;;34.33;20.67;;;;;;;38.68;42.51;101092.50;5009740;28;20432;-70
2022/03/02 09:40:31;;;;;;;28.23;14.10;;;;;;;38.64;42.09;101092.31;5011209;28;20408;-70
2022/03/02 09:42:59;;;;;;;40.93;16.60;;;;;;;38.96;41.73;101096.75;5005577;28;20470;-70
2022/03/02 09:45:29;;;;;;;26.70;14.60;;;;;;;39.05;41.86;101087.88;5011109;28;20852;-71
2022/03/02 09:48:03;;;;;;;31.17;16.10;;;;;;;39.21;41.20;101092.63;5017525;28;20412;-70
2022/03/02 09:50:35;;;;;;;35.40;13.97;;;;;;;39.30;41.36;101098.13;5009555;28;20432;-70
2022/03/02 09:53:06;;;;;;;36.43;14.47;;;;;;;39.37;41.39;101094.97;5008845;28;21036;-70
2022/03/02 09:55:35;;;;;;;29.63;14.00;;;;;;;39.27;41.18;101092.50;5008175;28;20431;-70
2022/03/02 09:58:01;;;;;;;28.03;14.37;;;;;;;39.43;40.27;101097.25;5009941;28;21016;-71
2022/03/02 10:00:30;;;;;;;29.80;15.20;;;;;;;39.44;40.65;101090.69;5013484;28;20412;-70
2022/03/02 10:02:58;;;;;;;30.60;14.07;;;;;;;39.43;41.01;101097.25;4998130;28;20484;-71
2022/03/02 10:05:28;;;;;;;20.73;13.73;;;;;;;39.43;41.22;101091.81;5010991;28;20511;-70
2022/03/02 10:08:07;;;;;;;42.70;15.50;;;;;;;39.29;41.08;101087.56;5012316;28;20420;-69
2022/03/02 10:10:38;;;;;;;31.50;16.30;;;;;;;39.32;41.34;101089.69;5012864;28;20507;-70
2022/03/02 10:13:10;;;;;;;26.57;14.07;;;;;;;39.37;40.52;101092.25;5012772;28;20899;-69
2022/03/02 10:15:38;;;;;;;27.93;15.47;;;;;;;39.50;39.89;101083.22;4996761;28;20463;-69
2022/03/02 10:18:06;;;;;;;21.20;13.00;;;;;;;39.18;40.66;101087.84;5012313;28;20421;-72
2022/03/02 10:20:36;;;;;;;20.60;13.10;;;;;;;39.48;40.53;101082.75;5010989;28;20811;-74
2022/03/02 10:23:27;;;;;;;26.93;14.27;;;;;;;39.23;40.65;101076.06;5001918;28;20459;-71
2022/03/02 10:25:53;;;;;;;20.73;12.37;;;;;;;39.34;40.52;101076.59;4998828;28;20511;-70
2022/03/02 10:28:28;;;;;;;23.40;13.73;;;;;;;39.53;40.45;101066.31;5011728;28;20964;-69
2022/03/02 10:31:33;;;;;;;25.23;14.70;;;;;;;39.69;40.17;101070.25;5012326;28;20952;-68
2022/03/02 10:34:12;;;;;;;26.73;13.50;;;;;;;39.36;40.25;101055.38;5002253;28;20416;-68
2022/03/02 10:36:42;;;;;;;31.93;15.70;;;;;;;39.43;40.26;101048.38;5015691;28;20948;-68
2022/03/02 10:39:09;;;;;;;23.83;12.93;;;;;;;39.45;39.96;101050.78;5011832;28;20413;-69
2022/03/02 10:41:39;;;;;;;31.00;14.97;;;;;;;39.44;40.21;101041.03;5010412;28;20444;-69
2022/03/02 10:44:30;;;;;;;26.83;13.80;;;;;;;39.59;39.93;101039.81;5011653;28;20965;-69
2022/03/02 10:47:02;;;;;;;28.00;15.00;;;;;;;39.58;39.84;101030.06;5010249;28;20428;-69
2022/03/02 10:49:31;;;;;;;26.30;14.87;;;;;;;39.57;39.45;101032.00;5012967;28;20424;-70
2022/03/02 10:52:00;;;;;;;31.83;12.80;;;;;;;39.55;39.58;101017.94;5012035;28;20409;-70
2022/03/02 10:54:27;;;;;;;42.10;13.97;;;;;;;39.66;39.21;101011.16;5014149;28;20991;-70
2022/03/02 10:56:54;;;;;;;30.43;15.80;;;;;;;39.55;39.60;101011.72;5010690;28;20448;-69
2022/03/02 10:59:25;;;;;;;31.40;16.73;;;;;;;39.70;39.50;101014.03;5011447;28;20474;-70
2022/03/02 11:01:53;;;;;;;25.00;14.57;;;;;;;39.65;39.64;101011.44;5011232;28;20821;-68
2022/03/02 11:04:20;;;;;;;30.23;13.13;;;;;;;39.87;39.75;101008.63;5011518;28;20464;-68
2022/03/02 11:06:47;;;;;;;38.47;13.67;;;;;;;39.75;39.78;101003.03;5012898;28;20484;-69
2022/03/02 11:09:16;;;;;;;34.17;14.00;;;;;;;39.23;40.00;101000.88;5014909;28;20420;-68
2022/03/02 11:11:42;;;;;;;26.60;14.43;;;;;;;39.46;40.09;100993.47;5010918;28;20476;-69